New Paris, Indiana
Current Conditions -  °F | °C
As of 2:53 AM on Saturday 25 Oct 2014 (Local Time) from KGSH Reporting Station
Overcast Overcast  
Wind Chill: 53°   Ceiling: 6000
Heat Index: 53°   Visibility: 7mi
Dew Point: 50°   Wind: 6mph
Humidity: 89%   Direction: 200°SSW
Pressure: 29.94"   Gusts: NA
Location:  41.5°N, 85.83°W
Report Text: KGSH 250653Z AUTO 20005KT 7SM BKN060 OVC090 12/10 A2994 RMK AO2 SLP138 T01170100
Loading
Personal Weather Stations






























Interactive Weather Map
Tropical Storm Tracking
New forecast layout! Learn more

10-Day Weather Forecast

Advertisements
Track Severe Weather on mobile